CheckWX is a tool to help pilots better visualize weather data.  It is not intended as a substitute for an official pre-flight weather briefing.

21:19:53 UTC

EPZG METAR
Zielona Góra-Babimost Airport
Babimost, Poland
Current

20 mins ago

EPZG 292100Z 24014KT 9999 BKN034 05/01 Q1005
Observed
Jan-29 @ 21:00 UTC
Wind
  • 240° at 14 KTS
Visibility
10,000+ meters
Flight Rules
VFR
Cloud Levels
  • Broken at 3,400' AGL
Temperature
C / 41°F
Dewpoint
C / 34°F
Humidity
76%
Altimeter
29.68" Hg
Pressure
1004.92 hPa
Previous

50 mins ago

EPZG 292030Z 24014KT 9999 OVC039 05/01 Q1005
Observed
Jan-29 @ 20:30 UTC
Wind
  • 240° at 14 KTS
Visibility
10,000+ meters
Flight Rules
VFR
Cloud Levels
  • Overcast at 3,900' AGL
Temperature
C / 41°F
Dewpoint
C / 34°F
Humidity
76%
Altimeter
29.68" Hg
Pressure
1004.92 hPa
Previous

1 hour ago

EPZG 292000Z 24015KT 9999 FEW028 BKN039 05/00 Q1004
Observed
Jan-29 @ 20:00 UTC
Wind
  • 240° at 15 KTS
Visibility
10,000+ meters
Flight Rules
VFR
Cloud Levels
  • Few at 2,800' AGL
  • Broken at 3,900' AGL
Temperature
C / 41°F
Dewpoint
C / 32°F
Humidity
70%
Altimeter
29.65" Hg
Pressure
1003.92 hPa